Terminal Aerodrome Forecast
Issued by NWS Miami, FL

Home | Current Version | Previous Version | Text Only | Print | Product List | Glossary On
Versions: 1 2 3 4 5 6 7 8 9 10 11 12 13 14 15 16 17 18 19 20 21 22 23 24 25 26 27 28 29 30 31 32 33 34 35 36 37 38 39 40 41 42 43 44 45 46 47 48 49 50
000
FTUS42 KMFL 052320
TAFFLL
TAF
KFLL 052320Z 0600/0624 17011KT P6SM SCT020 SCT030 SCT250
     FM060600 17011KT P6SM BKN020 BKN200
     FM061400 17015G22KT P6SM VCSH SCT025 BKN050 BKN200
     FM062200 22011KT P6SM VCSH SCT020 BKN035 BKN080=

USA.gov is the U.S. government's official web portal to all federal, state and local government web resources and services.